الصفحة الرئيسية
METAR-TAF:

METAR-TAF

مطار :

Meeker Airport

Meeker, كولورادو, الولايات المتحدة

دائرة عرض: 40-02-32N, خط طول: 107-53-23W, ارتفاع: 1948 متر

مراقبة الطقس الحالي

تاريخ ووقت الإصدار 49 دقيقة قبل الساعة 03:53UTC
ريح 3 عقدة من الشرق/الجنوب الشرقي
درجة الحرارة 20°درجة مئوية
الرطوبة 37%
ضغط 1025 hPa
الرؤية: 16.1 كم
سماء صافية

METAR: KEEO 180353Z AUTO 12003KT 10SM CLR 20/05 A3026 RMK AO2 SLP149 T02000050

زمن: 22:42 (04:42 UTC)


TAF: مفقودة

أرصاد الطقس والتوقعات من أكثر من 4000 مطار (تقارير الطقس للمطار METAR والتنبؤ بالطقس بالمطارTAF).

المحطات المتاحة هي النقط الصفراء والحمراء على الخريطة.

حرك المؤشر فوق النقطة لمعرفة اسم المحطة.

ثم انقر لمعرفة أرصاد وتوقعات الطقس.

لتغيير الخارطة: اضغط على الأزرار الخضراء مع رمز الصليب الأسود للتكبير. على الزر الأخضر مع شرطة للتصغير، أو على الأسهم الخضراء للخرائط المجاورة.


METAR-TAF: